Orbital elements of FENGYUN 1C DEB
| Launched | 9 May 1999 |
| Flight ended | – |
| Launch site | Taiyuan Space Center, PRC |
| Owner | People's Republic of China |
| NORAD ID | 30197 |
| Date fetched |
Epoch osculation |
Inc. [°] |
Ecc. | RA asc node [hr] |
Arg Peri. [°] |
Mean anom [°] |
Mean motion [rev/day] |
Abs. mag |
| Date fetched |
Epoch osculation |
Inc. [°] |
Ecc. | RA asc node [hr] |
Arg Peri. [°] |
Mean anom [°] |
Mean motion [rev/day] |
Abs. mag |
| 2026 May 03 17:57 | 2026 Apr 30 14:15:32 | 98.9473 | 0.00573 | 3.7649 | 164.8572 | 8.6510 | 14.37918 | – |
| 2026 May 02 17:57 | 2026 Apr 30 14:15:32 | 98.9473 | 0.00573 | 3.7649 | 164.8572 | 8.6510 | 14.37918 | – |
| 2026 May 01 17:56 | 2026 Apr 30 14:15:32 | 98.9473 | 0.00573 | 3.7649 | 164.8572 | 8.6510 | 14.37918 | – |
| 2026 Apr 30 17:56 | 2026 Apr 30 14:15:32 | 98.9473 | 0.00573 | 3.7649 | 164.8572 | 8.6510 | 14.37918 | – |
| 2026 Apr 29 17:57 | 2026 Apr 23 06:51:10 | 98.9465 | 0.00568 | 3.2578 | 186.5664 | 8.6510 | 14.37918 | – |
| 2026 Apr 28 17:56 | 2026 Apr 23 06:51:10 | 98.9465 | 0.00568 | 3.2578 | 186.5664 | 8.6510 | 14.37918 | – |
| 2026 Apr 27 17:58 | 2026 Apr 23 06:51:10 | 98.9465 | 0.00568 | 3.2578 | 186.5664 | 8.6510 | 14.37918 | – |
| 2026 Apr 26 17:58 | 2026 Apr 23 06:51:10 | 98.9465 | 0.00568 | 3.2578 | 186.5664 | 8.6510 | 14.37918 | – |
| 2026 Apr 25 17:58 | 2026 Apr 23 06:51:10 | 98.9465 | 0.00568 | 3.2578 | 186.5664 | 8.6510 | 14.37918 | – |
| 2026 Apr 24 17:59 | 2026 Apr 23 06:51:10 | 98.9465 | 0.00568 | 3.2578 | 186.5664 | 8.6510 | 14.37918 | – |
| 2026 Apr 23 17:57 | 2026 Apr 19 05:59:00 | 98.9464 | 0.00565 | 2.9777 | 198.6199 | 8.6510 | 14.37918 | – |
| 2026 Apr 22 17:57 | 2026 Apr 19 05:59:00 | 98.9464 | 0.00565 | 2.9777 | 198.6199 | 8.6510 | 14.37918 | – |
| 2026 Apr 21 17:57 | 2026 Apr 19 05:59:00 | 98.9464 | 0.00565 | 2.9777 | 198.6199 | 8.6510 | 14.37918 | – |
| 2026 Apr 20 17:57 | 2026 Apr 19 05:59:00 | 98.9464 | 0.00565 | 2.9777 | 198.6199 | 8.6510 | 14.37918 | – |
| 2026 Apr 19 17:58 | 2026 Apr 19 05:59:00 | 98.9464 | 0.00565 | 2.9777 | 198.6199 | 8.6510 | 14.37918 | – |
| 2026 Apr 18 17:56 | 2026 Apr 12 19:41:13 | 98.9458 | 0.00563 | 2.5317 | 217.9469 | 8.6510 | 14.37918 | – |
| 2026 Apr 16 17:57 | 2026 Apr 12 19:41:13 | 98.9458 | 0.00563 | 2.5317 | 217.9469 | 8.6510 | 14.37918 | – |
| 2026 Apr 14 17:57 | 2026 Apr 12 19:41:13 | 98.9458 | 0.00563 | 2.5317 | 217.9469 | 8.6510 | 14.37918 | – |
| 2026 Apr 13 17:57 | 2026 Apr 12 19:41:13 | 98.9458 | 0.00563 | 2.5317 | 217.9469 | 8.6510 | 14.37918 | – |
| 2026 Apr 12 17:57 | 2026 Apr 08 07:44:22 | 98.9450 | 0.00562 | 2.2197 | 231.5167 | 8.6510 | 14.37918 | – |
| 2026 Apr 11 17:57 | 2026 Apr 08 07:44:22 | 98.9450 | 0.00562 | 2.2197 | 231.5167 | 8.6510 | 14.37918 | – |
| 2026 Apr 10 17:58 | 2026 Apr 08 07:44:22 | 98.9450 | 0.00562 | 2.2197 | 231.5167 | 8.6510 | 14.37918 | – |
| 2026 Apr 09 18:01 | 2026 Apr 08 07:44:22 | 98.9450 | 0.00562 | 2.2197 | 231.5167 | 8.6510 | 14.37918 | – |
| 2026 Apr 08 17:57 | 2026 Apr 08 07:44:22 | 98.9450 | 0.00562 | 2.2197 | 231.5167 | 8.6510 | 14.37918 | – |
| 2026 Apr 07 17:57 | 2026 Apr 02 06:27:32 | 98.9452 | 0.00562 | 1.7998 | 249.7887 | 8.6510 | 14.37918 | – |
| 2026 Apr 06 17:57 | 2026 Apr 02 06:27:32 | 98.9452 | 0.00562 | 1.7998 | 249.7887 | 8.6510 | 14.37918 | – |